Terminal Aerodrome Forecast
Issued by NWS Shreveport, LA

Home | Current Version | Previous Version | Text Only | Print | Product List | Glossary On
Versions: 1 2 3 4 5 6 7 8 9 10 11 12
000
FTUS44 KSHV 160536
TAFLFK
TAF
KLFK 160536Z 1606/1706 00000KT P6SM SCT180 BKN250
     FM161600 15005KT P6SM SCT100 BKN150 BKN250
     FM161800 16007KT P6SM BKN080
     FM162000 13006KT P6SM VCSH BKN060
     FM162200 12005KT P6SM -RA BKN050
     FM170300 09007KT 4SM SHRA BR BKN025=

USA.gov is the U.S. government's official web portal to all federal, state and local government web resources and services.